sensor_id;sensor_type;location;lat;lon;timestamp;P1;durP1;ratioP1;P2;durP2;ratioP2
34982;SDS011;21187;50.976;13.720;2024-01-16T00:00:46;11.70;;;1.63;;
34982;SDS011;21187;50.976;13.720;2024-01-16T00:05:48;5.15;;;1.33;;
34982;SDS011;21187;50.976;13.720;2024-01-16T00:10:50;4.88;;;1.55;;
34982;SDS011;21187;50.976;13.720;2024-01-16T00:15:52;8.38;;;2.00;;
34982;SDS011;21187;50.976;13.720;2024-01-16T00:20:54;6.80;;;1.73;;
34982;SDS011;21187;50.976;13.720;2024-01-16T00:25:56;5.75;;;1.67;;
34982;SDS011;21187;50.976;13.720;2024-01-16T00:30:58;9.10;;;1.77;;
34982;SDS011;21187;50.976;13.720;2024-01-16T00:36:00;13.35;;;2.38;;
34982;SDS011;21187;50.976;13.720;2024-01-16T00:41:01;10.68;;;2.42;;
34982;SDS011;21187;50.976;13.720;2024-01-16T00:46:04;9.20;;;2.40;;
34982;SDS011;21187;50.976;13.720;2024-01-16T00:51:05;4.90;;;2.72;;
34982;SDS011;21187;50.976;13.720;2024-01-16T00:56:07;10.50;;;2.72;;
34982;SDS011;21187;50.976;13.720;2024-01-16T01:01:10;6.65;;;2.05;;
34982;SDS011;21187;50.976;13.720;2024-01-16T01:06:12;14.60;;;2.60;;
34982;SDS011;21187;50.976;13.720;2024-01-16T01:11:14;10.30;;;3.03;;
34982;SDS011;21187;50.976;13.720;2024-01-16T01:16:16;6.15;;;2.30;;
34982;SDS011;21187;50.976;13.720;2024-01-16T01:21:18;7.22;;;2.47;;
34982;SDS011;21187;50.976;13.720;2024-01-16T01:26:20;7.05;;;2.60;;
34982;SDS011;21187;50.976;13.720;2024-01-16T01:31:22;8.85;;;2.90;;
34982;SDS011;21187;50.976;13.720;2024-01-16T01:36:24;10.52;;;2.95;;
34982;SDS011;21187;50.976;13.720;2024-01-16T01:41:26;6.80;;;2.90;;
34982;SDS011;21187;50.976;13.720;2024-01-16T01:46:28;11.35;;;3.10;;
34982;SDS011;21187;50.976;13.720;2024-01-16T01:51:34;6.43;;;2.80;;
34982;SDS011;21187;50.976;13.720;2024-01-16T01:56:36;6.80;;;2.47;;
34982;SDS011;21187;50.976;13.720;2024-01-16T02:01:38;9.98;;;2.70;;
34982;SDS011;21187;50.976;13.720;2024-01-16T02:06:44;5.22;;;2.40;;
34982;SDS011;21187;50.976;13.720;2024-01-16T02:11:46;5.65;;;2.20;;
34982;SDS011;21187;50.976;13.720;2024-01-16T02:16:48;10.50;;;2.08;;
34982;SDS011;21187;50.976;13.720;2024-01-16T02:21:51;5.60;;;2.13;;
34982;SDS011;21187;50.976;13.720;2024-01-16T02:27:00;9.65;;;2.70;;
34982;SDS011;21187;50.976;13.720;2024-01-16T02:32:01;8.48;;;2.83;;
34982;SDS011;21187;50.976;13.720;2024-01-16T02:37:05;14.13;;;2.30;;
34982;SDS011;21187;50.976;13.720;2024-01-16T02:42:06;6.25;;;2.70;;
34982;SDS011;21187;50.976;13.720;2024-01-16T02:47:08;11.57;;;2.40;;
34982;SDS011;21187;50.976;13.720;2024-01-16T02:52:10;11.38;;;2.63;;
34982;SDS011;21187;50.976;13.720;2024-01-16T02:57:12;9.50;;;2.17;;
34982;SDS011;21187;50.976;13.720;2024-01-16T03:02:14;6.78;;;3.08;;
34982;SDS011;21187;50.976;13.720;2024-01-16T03:07:16;9.43;;;2.30;;
34982;SDS011;21187;50.976;13.720;2024-01-16T03:12:18;9.18;;;2.00;;
34982;SDS011;21187;50.976;13.720;2024-01-16T03:17:19;9.02;;;2.58;;
34982;SDS011;21187;50.976;13.720;2024-01-16T03:22:22;3.58;;;1.95;;
34982;SDS011;21187;50.976;13.720;2024-01-16T03:27:24;10.60;;;1.98;;
34982;SDS011;21187;50.976;13.720;2024-01-16T03:32:26;11.20;;;2.25;;
34982;SDS011;21187;50.976;13.720;2024-01-16T03:37:28;2.63;;;1.65;;
34982;SDS011;21187;50.976;13.720;2024-01-16T03:42:30;2.40;;;1.33;;
34982;SDS011;21187;50.976;13.720;2024-01-16T03:47:32;4.07;;;1.55;;
34982;SDS011;21187;50.976;13.720;2024-01-16T03:52:33;7.10;;;1.65;;
34982;SDS011;21187;50.976;13.720;2024-01-16T03:57:35;8.32;;;1.60;;
34982;SDS011;21187;50.976;13.720;2024-01-16T04:02:37;7.75;;;1.52;;
34982;SDS011;21187;50.976;13.720;2024-01-16T04:07:40;6.20;;;1.52;;
34982;SDS011;21187;50.976;13.720;2024-01-16T04:12:42;3.72;;;1.08;;
34982;SDS011;21187;50.976;13.720;2024-01-16T04:17:44;8.43;;;1.83;;
34982;SDS011;21187;50.976;13.720;2024-01-16T04:22:46;2.17;;;1.38;;
34982;SDS011;21187;50.976;13.720;2024-01-16T04:27:48;4.57;;;1.90;;
34982;SDS011;21187;50.976;13.720;2024-01-16T04:32:50;5.05;;;1.75;;
34982;SDS011;21187;50.976;13.720;2024-01-16T04:37:52;14.88;;;2.35;;
34982;SDS011;21187;50.976;13.720;2024-01-16T04:42:53;8.00;;;2.28;;
34982;SDS011;21187;50.976;13.720;2024-01-16T04:47:55;8.93;;;1.90;;
34982;SDS011;21187;50.976;13.720;2024-01-16T04:52:58;8.15;;;1.88;;
34982;SDS011;21187;50.976;13.720;2024-01-16T04:58:03;7.25;;;2.22;;
34982;SDS011;21187;50.976;13.720;2024-01-16T05:03:05;5.85;;;2.75;;
34982;SDS011;21187;50.976;13.720;2024-01-16T05:08:07;7.70;;;2.40;;
34982;SDS011;21187;50.976;13.720;2024-01-16T05:13:09;5.90;;;1.92;;
34982;SDS011;21187;50.976;13.720;2024-01-16T05:18:13;5.18;;;1.58;;
34982;SDS011;21187;50.976;13.720;2024-01-16T05:23:15;7.97;;;2.45;;
34982;SDS011;21187;50.976;13.720;2024-01-16T05:28:17;10.13;;;1.17;;
34982;SDS011;21187;50.976;13.720;2024-01-16T05:33:19;8.73;;;1.45;;
34982;SDS011;21187;50.976;13.720;2024-01-16T05:38:21;9.63;;;1.85;;
34982;SDS011;21187;50.976;13.720;2024-01-16T05:43:24;4.97;;;1.90;;
34982;SDS011;21187;50.976;13.720;2024-01-16T05:48:26;3.85;;;1.48;;
34982;SDS011;21187;50.976;13.720;2024-01-16T05:53:28;8.50;;;1.67;;
34982;SDS011;21187;50.976;13.720;2024-01-16T05:58:30;8.57;;;1.98;;
34982;SDS011;21187;50.976;13.720;2024-01-16T06:03:37;8.95;;;2.17;;
34982;SDS011;21187;50.976;13.720;2024-01-16T06:08:39;9.70;;;2.45;;
34982;SDS011;21187;50.976;13.720;2024-01-16T06:13:41;7.90;;;2.42;;
34982;SDS011;21187;50.976;13.720;2024-01-16T06:18:43;8.80;;;3.22;;
34982;SDS011;21187;50.976;13.720;2024-01-16T06:23:47;13.43;;;3.20;;
34982;SDS011;21187;50.976;13.720;2024-01-16T06:28:49;11.77;;;3.78;;
34982;SDS011;21187;50.976;13.720;2024-01-16T06:33:51;10.80;;;3.15;;
34982;SDS011;21187;50.976;13.720;2024-01-16T06:38:53;12.23;;;2.35;;
34982;SDS011;21187;50.976;13.720;2024-01-16T06:43:56;5.78;;;2.55;;
34982;SDS011;21187;50.976;13.720;2024-01-16T06:48:57;10.85;;;2.30;;
34982;SDS011;21187;50.976;13.720;2024-01-16T06:53:59;10.85;;;3.30;;
34982;SDS011;21187;50.976;13.720;2024-01-16T06:59:02;15.25;;;3.45;;
34982;SDS011;21187;50.976;13.720;2024-01-16T07:04:04;8.63;;;2.72;;
34982;SDS011;21187;50.976;13.720;2024-01-16T07:09:07;9.10;;;2.25;;
34982;SDS011;21187;50.976;13.720;2024-01-16T07:14:12;5.15;;;2.10;;
34982;SDS011;21187;50.976;13.720;2024-01-16T07:19:14;11.13;;;3.70;;
34982;SDS011;21187;50.976;13.720;2024-01-16T07:24:16;7.32;;;3.20;;
34982;SDS011;21187;50.976;13.720;2024-01-16T07:29:18;10.50;;;2.30;;
34982;SDS011;21187;50.976;13.720;2024-01-16T07:34:21;11.80;;;1.80;;
34982;SDS011;21187;50.976;13.720;2024-01-16T07:39:23;7.47;;;1.45;;
34982;SDS011;21187;50.976;13.720;2024-01-16T07:44:26;8.20;;;1.70;;
34982;SDS011;21187;50.976;13.720;2024-01-16T07:49:28;6.57;;;1.67;;
34982;SDS011;21187;50.976;13.720;2024-01-16T07:54:30;5.55;;;1.90;;
34982;SDS011;21187;50.976;13.720;2024-01-16T07:59:32;11.48;;;1.73;;
34982;SDS011;21187;50.976;13.720;2024-01-16T08:04:35;8.23;;;1.77;;
34982;SDS011;21187;50.976;13.720;2024-01-16T08:09:37;12.10;;;2.40;;
34982;SDS011;21187;50.976;13.720;2024-01-16T08:14:38;7.45;;;1.90;;
34982;SDS011;21187;50.976;13.720;2024-01-16T08:19:41;6.30;;;1.80;;
34982;SDS011;21187;50.976;13.720;2024-01-16T08:24:43;13.70;;;2.10;;
34982;SDS011;21187;50.976;13.720;2024-01-16T08:29:45;10.25;;;2.53;;
34982;SDS011;21187;50.976;13.720;2024-01-16T08:34:46;5.57;;;1.67;;
34982;SDS011;21187;50.976;13.720;2024-01-16T08:39:49;9.63;;;1.70;;
34982;SDS011;21187;50.976;13.720;2024-01-16T08:44:50;5.63;;;2.03;;
34982;SDS011;21187;50.976;13.720;2024-01-16T08:49:52;8.98;;;2.03;;
34982;SDS011;21187;50.976;13.720;2024-01-16T08:54:54;12.23;;;2.63;;
34982;SDS011;21187;50.976;13.720;2024-01-16T08:59:56;4.90;;;2.00;;
34982;SDS011;21187;50.976;13.720;2024-01-16T09:04:59;9.07;;;1.98;;
34982;SDS011;21187;50.976;13.720;2024-01-16T09:10:01;13.65;;;2.25;;
34982;SDS011;21187;50.976;13.720;2024-01-16T09:15:02;7.80;;;2.33;;
34982;SDS011;21187;50.976;13.720;2024-01-16T09:20:06;7.65;;;2.47;;
34982;SDS011;21187;50.976;13.720;2024-01-16T09:25:09;4.57;;;2.22;;
34982;SDS011;21187;50.976;13.720;2024-01-16T09:30:10;4.50;;;1.95;;
34982;SDS011;21187;50.976;13.720;2024-01-16T09:35:14;6.70;;;2.30;;
34982;SDS011;21187;50.976;13.720;2024-01-16T09:40:16;10.63;;;2.58;;
34982;SDS011;21187;50.976;13.720;2024-01-16T09:45:21;15.27;;;2.35;;
34982;SDS011;21187;50.976;13.720;2024-01-16T09:50:24;10.80;;;2.22;;
34982;SDS011;21187;50.976;13.720;2024-01-16T09:55:26;5.57;;;2.50;;
34982;SDS011;21187;50.976;13.720;2024-01-16T10:00:28;5.07;;;2.20;;
34982;SDS011;21187;50.976;13.720;2024-01-16T10:05:31;9.43;;;2.78;;
34982;SDS011;21187;50.976;13.720;2024-01-16T10:10:33;11.43;;;2.20;;
34982;SDS011;21187;50.976;13.720;2024-01-16T10:15:49;7.32;;;2.10;;
34982;SDS011;21187;50.976;13.720;2024-01-16T10:20:52;7.82;;;2.35;;
34982;SDS011;21187;50.976;13.720;2024-01-16T10:26:08;8.57;;;2.38;;
34982;SDS011;21187;50.976;13.720;2024-01-16T10:31:13;4.90;;;1.63;;
34982;SDS011;21187;50.976;13.720;2024-01-16T10:36:18;6.93;;;2.50;;
34982;SDS011;21187;50.976;13.720;2024-01-16T10:41:23;7.05;;;3.08;;
34982;SDS011;21187;50.976;13.720;2024-01-16T10:46:28;6.72;;;2.17;;
34982;SDS011;21187;50.976;13.720;2024-01-16T10:51:30;4.45;;;1.80;;
34982;SDS011;21187;50.976;13.720;2024-01-16T10:56:33;10.43;;;2.20;;
34982;SDS011;21187;50.976;13.720;2024-01-16T11:01:35;11.75;;;2.28;;
34982;SDS011;21187;50.976;13.720;2024-01-16T11:06:39;9.93;;;3.25;;
34982;SDS011;21187;50.976;13.720;2024-01-16T11:11:46;6.40;;;1.73;;
34982;SDS011;21187;50.976;13.720;2024-01-16T11:16:48;5.47;;;2.33;;
34982;SDS011;21187;50.976;13.720;2024-01-16T11:21:52;9.93;;;3.50;;
34982;SDS011;21187;50.976;13.720;2024-01-16T11:26:55;8.57;;;1.55;;
34982;SDS011;21187;50.976;13.720;2024-01-16T11:31:58;11.60;;;3.88;;
34982;SDS011;21187;50.976;13.720;2024-01-16T11:37:31;4.53;;;2.05;;
34982;SDS011;21187;50.976;13.720;2024-01-16T11:42:34;4.93;;;2.03;;
34982;SDS011;21187;50.976;13.720;2024-01-16T11:47:44;11.80;;;2.70;;
34982;SDS011;21187;50.976;13.720;2024-01-16T11:52:46;9.18;;;2.65;;
34982;SDS011;21187;50.976;13.720;2024-01-16T11:58:35;8.52;;;2.28;;
34982;SDS011;21187;50.976;13.720;2024-01-16T12:03:28;14.38;;;3.83;;
34982;SDS011;21187;50.976;13.720;2024-01-16T12:08:36;16.95;;;3.00;;
34982;SDS011;21187;50.976;13.720;2024-01-16T12:13:41;10.93;;;2.75;;
34982;SDS011;21187;50.976;13.720;2024-01-16T12:18:43;7.28;;;2.00;;
34982;SDS011;21187;50.976;13.720;2024-01-16T12:23:50;6.97;;;2.60;;
34982;SDS011;21187;50.976;13.720;2024-01-16T12:29:05;5.90;;;1.73;;
34982;SDS011;21187;50.976;13.720;2024-01-16T12:34:08;10.02;;;3.17;;
34982;SDS011;21187;50.976;13.720;2024-01-16T12:39:11;14.25;;;4.95;;
34982;SDS011;21187;50.976;13.720;2024-01-16T12:44:14;5.30;;;2.38;;
34982;SDS011;21187;50.976;13.720;2024-01-16T12:49:18;6.95;;;2.88;;
34982;SDS011;21187;50.976;13.720;2024-01-16T12:54:20;7.05;;;2.20;;
34982;SDS011;21187;50.976;13.720;2024-01-16T12:59:29;5.00;;;1.90;;
34982;SDS011;21187;50.976;13.720;2024-01-16T13:04:31;12.13;;;2.22;;
34982;SDS011;21187;50.976;13.720;2024-01-16T13:09:33;14.38;;;2.83;;
34982;SDS011;21187;50.976;13.720;2024-01-16T13:14:35;4.13;;;2.05;;
34982;SDS011;21187;50.976;13.720;2024-01-16T13:19:37;11.63;;;3.35;;
34982;SDS011;21187;50.976;13.720;2024-01-16T13:24:41;8.60;;;2.67;;
34982;SDS011;21187;50.976;13.720;2024-01-16T13:29:55;12.98;;;2.90;;
34982;SDS011;21187;50.976;13.720;2024-01-16T13:34:58;4.53;;;2.28;;
34982;SDS011;21187;50.976;13.720;2024-01-16T13:40:00;9.35;;;2.80;;
34982;SDS011;21187;50.976;13.720;2024-01-16T13:45:02;5.03;;;2.00;;
34982;SDS011;21187;50.976;13.720;2024-01-16T13:50:06;5.18;;;2.20;;
34982;SDS011;21187;50.976;13.720;2024-01-16T13:55:08;12.90;;;2.72;;
34982;SDS011;21187;50.976;13.720;2024-01-16T14:00:11;5.18;;;1.83;;
34982;SDS011;21187;50.976;13.720;2024-01-16T14:05:16;8.65;;;2.50;;
34982;SDS011;21187;50.976;13.720;2024-01-16T14:10:22;6.93;;;1.60;;
34982;SDS011;21187;50.976;13.720;2024-01-16T14:15:26;5.90;;;1.98;;
34982;SDS011;21187;50.976;13.720;2024-01-16T14:20:28;6.05;;;1.50;;
34982;SDS011;21187;50.976;13.720;2024-01-16T14:25:30;6.15;;;1.85;;
34982;SDS011;21187;50.976;13.720;2024-01-16T14:30:33;3.72;;;1.63;;
34982;SDS011;21187;50.976;13.720;2024-01-16T14:35:36;8.02;;;1.98;;
34982;SDS011;21187;50.976;13.720;2024-01-16T14:40:39;5.22;;;2.05;;
34982;SDS011;21187;50.976;13.720;2024-01-16T14:45:42;5.82;;;1.77;;
34982;SDS011;21187;50.976;13.720;2024-01-16T14:50:44;4.65;;;1.60;;
34982;SDS011;21187;50.976;13.720;2024-01-16T14:55:47;5.40;;;2.20;;
34982;SDS011;21187;50.976;13.720;2024-01-16T15:00:50;6.15;;;2.30;;
34982;SDS011;21187;50.976;13.720;2024-01-16T15:05:53;5.03;;;2.20;;
34982;SDS011;21187;50.976;13.720;2024-01-16T15:10:57;6.93;;;2.55;;
34982;SDS011;21187;50.976;13.720;2024-01-16T15:16:01;5.53;;;2.05;;
34982;SDS011;21187;50.976;13.720;2024-01-16T15:21:03;10.27;;;3.00;;
34982;SDS011;21187;50.976;13.720;2024-01-16T15:26:06;7.75;;;2.78;;
34982;SDS011;21187;50.976;13.720;2024-01-16T15:31:08;12.38;;;3.00;;
34982;SDS011;21187;50.976;13.720;2024-01-16T15:36:10;8.55;;;3.15;;
34982;SDS011;21187;50.976;13.720;2024-01-16T15:41:12;7.03;;;2.80;;
34982;SDS011;21187;50.976;13.720;2024-01-16T15:46:14;6.03;;;3.00;;
34982;SDS011;21187;50.976;13.720;2024-01-16T15:51:18;12.15;;;3.78;;
34982;SDS011;21187;50.976;13.720;2024-01-16T15:56:19;33.05;;;12.50;;
34982;SDS011;21187;50.976;13.720;2024-01-16T16:01:21;16.00;;;5.35;;
34982;SDS011;21187;50.976;13.720;2024-01-16T16:06:24;9.52;;;3.17;;
34982;SDS011;21187;50.976;13.720;2024-01-16T16:11:26;14.52;;;5.82;;
34982;SDS011;21187;50.976;13.720;2024-01-16T16:16:28;9.82;;;3.90;;
34982;SDS011;21187;50.976;13.720;2024-01-16T16:21:32;11.13;;;4.88;;
34982;SDS011;21187;50.976;13.720;2024-01-16T16:26:35;11.93;;;4.65;;
34982;SDS011;21187;50.976;13.720;2024-01-16T16:31:39;8.65;;;3.75;;
34982;SDS011;21187;50.976;13.720;2024-01-16T16:36:42;9.70;;;3.35;;
34982;SDS011;21187;50.976;13.720;2024-01-16T16:41:45;13.10;;;4.10;;
34982;SDS011;21187;50.976;13.720;2024-01-16T16:46:48;12.82;;;4.00;;
34982;SDS011;21187;50.976;13.720;2024-01-16T16:51:50;10.95;;;4.20;;
34982;SDS011;21187;50.976;13.720;2024-01-16T16:56:53;14.82;;;4.18;;
34982;SDS011;21187;50.976;13.720;2024-01-16T17:01:56;9.70;;;4.13;;
34982;SDS011;21187;50.976;13.720;2024-01-16T17:06:58;8.10;;;4.00;;
34982;SDS011;21187;50.976;13.720;2024-01-16T17:12:01;13.32;;;4.28;;
34982;SDS011;21187;50.976;13.720;2024-01-16T17:17:03;9.50;;;3.95;;
34982;SDS011;21187;50.976;13.720;2024-01-16T17:22:05;11.02;;;3.40;;
34982;SDS011;21187;50.976;13.720;2024-01-16T17:27:07;11.85;;;4.70;;
34982;SDS011;21187;50.976;13.720;2024-01-16T17:32:10;12.88;;;5.60;;
34982;SDS011;21187;50.976;13.720;2024-01-16T17:37:12;15.10;;;4.88;;
34982;SDS011;21187;50.976;13.720;2024-01-16T17:42:14;11.25;;;4.63;;
34982;SDS011;21187;50.976;13.720;2024-01-16T17:47:16;25.92;;;7.20;;
34982;SDS011;21187;50.976;13.720;2024-01-16T17:52:20;15.20;;;6.18;;
34982;SDS011;21187;50.976;13.720;2024-01-16T17:57:23;12.07;;;5.65;;
34982;SDS011;21187;50.976;13.720;2024-01-16T18:02:24;13.93;;;5.60;;
34982;SDS011;21187;50.976;13.720;2024-01-16T18:07:27;18.42;;;7.13;;
34982;SDS011;21187;50.976;13.720;2024-01-16T18:12:30;14.27;;;6.82;;
34982;SDS011;21187;50.976;13.720;2024-01-16T18:17:33;17.55;;;7.38;;
34982;SDS011;21187;50.976;13.720;2024-01-16T18:22:38;15.93;;;7.22;;
34982;SDS011;21187;50.976;13.720;2024-01-16T18:27:42;11.45;;;5.95;;
34982;SDS011;21187;50.976;13.720;2024-01-16T18:32:45;15.60;;;5.72;;
34982;SDS011;21187;50.976;13.720;2024-01-16T18:37:48;14.00;;;5.93;;
34982;SDS011;21187;50.976;13.720;2024-01-16T18:42:54;7.50;;;3.90;;
34982;SDS011;21187;50.976;13.720;2024-01-16T18:47:56;8.85;;;3.28;;
34982;SDS011;21187;50.976;13.720;2024-01-16T18:53:00;16.30;;;4.93;;
34982;SDS011;21187;50.976;13.720;2024-01-16T18:58:03;9.73;;;4.47;;
34982;SDS011;21187;50.976;13.720;2024-01-16T19:03:06;11.55;;;4.82;;
34982;SDS011;21187;50.976;13.720;2024-01-16T19:08:09;10.40;;;4.55;;
34982;SDS011;21187;50.976;13.720;2024-01-16T19:13:12;19.92;;;6.97;;
34982;SDS011;21187;50.976;13.720;2024-01-16T19:18:16;25.42;;;8.55;;
34982;SDS011;21187;50.976;13.720;2024-01-16T19:23:18;25.40;;;7.30;;
34982;SDS011;21187;50.976;13.720;2024-01-16T19:28:22;17.17;;;8.35;;
34982;SDS011;21187;50.976;13.720;2024-01-16T19:33:25;9.63;;;4.55;;
34982;SDS011;21187;50.976;13.720;2024-01-16T19:38:28;6.35;;;3.38;;
34982;SDS011;21187;50.976;13.720;2024-01-16T19:43:31;6.35;;;3.90;;
34982;SDS011;21187;50.976;13.720;2024-01-16T19:48:32;11.77;;;4.13;;
34982;SDS011;21187;50.976;13.720;2024-01-16T19:53:41;9.43;;;4.57;;
34982;SDS011;21187;50.976;13.720;2024-01-16T19:58:43;13.27;;;4.60;;
34982;SDS011;21187;50.976;13.720;2024-01-16T20:03:48;11.23;;;3.67;;
34982;SDS011;21187;50.976;13.720;2024-01-16T20:08:50;5.03;;;3.53;;
34982;SDS011;21187;50.976;13.720;2024-01-16T20:13:58;15.77;;;4.60;;
34982;SDS011;21187;50.976;13.720;2024-01-16T20:19:01;15.13;;;3.95;;
34982;SDS011;21187;50.976;13.720;2024-01-16T20:24:04;12.73;;;4.38;;
34982;SDS011;21187;50.976;13.720;2024-01-16T20:29:08;10.43;;;3.83;;
34982;SDS011;21187;50.976;13.720;2024-01-16T20:34:12;11.10;;;3.78;;
34982;SDS011;21187;50.976;13.720;2024-01-16T20:39:14;10.30;;;4.40;;
34982;SDS011;21187;50.976;13.720;2024-01-16T20:44:17;7.68;;;3.22;;
34982;SDS011;21187;50.976;13.720;2024-01-16T20:49:22;8.43;;;2.78;;
34982;SDS011;21187;50.976;13.720;2024-01-16T20:54:24;6.78;;;2.40;;
34982;SDS011;21187;50.976;13.720;2024-01-16T20:59:26;8.88;;;2.35;;
34982;SDS011;21187;50.976;13.720;2024-01-16T21:04:28;8.45;;;3.10;;
34982;SDS011;21187;50.976;13.720;2024-01-16T21:09:31;9.60;;;2.85;;
34982;SDS011;21187;50.976;13.720;2024-01-16T21:14:33;7.80;;;2.20;;
34982;SDS011;21187;50.976;13.720;2024-01-16T21:19:35;6.55;;;2.33;;
34982;SDS011;21187;50.976;13.720;2024-01-16T21:24:37;7.53;;;2.67;;
34982;SDS011;21187;50.976;13.720;2024-01-16T21:29:39;3.67;;;2.20;;
34982;SDS011;21187;50.976;13.720;2024-01-16T21:34:45;11.68;;;2.00;;
34982;SDS011;21187;50.976;13.720;2024-01-16T21:39:49;6.32;;;2.70;;
34982;SDS011;21187;50.976;13.720;2024-01-16T21:44:50;7.70;;;2.78;;
34982;SDS011;21187;50.976;13.720;2024-01-16T21:49:54;7.90;;;2.35;;
34982;SDS011;21187;50.976;13.720;2024-01-16T21:54:57;5.93;;;2.20;;
34982;SDS011;21187;50.976;13.720;2024-01-16T22:00:03;3.88;;;2.30;;
34982;SDS011;21187;50.976;13.720;2024-01-16T22:05:06;3.83;;;1.75;;
34982;SDS011;21187;50.976;13.720;2024-01-16T22:10:09;5.38;;;2.10;;
34982;SDS011;21187;50.976;13.720;2024-01-16T22:15:11;7.35;;;2.58;;
34982;SDS011;21187;50.976;13.720;2024-01-16T22:20:14;5.47;;;2.15;;
34982;SDS011;21187;50.976;13.720;2024-01-16T22:25:18;6.10;;;2.35;;
34982;SDS011;21187;50.976;13.720;2024-01-16T22:30:20;8.48;;;3.05;;
34982;SDS011;21187;50.976;13.720;2024-01-16T22:35:22;3.92;;;2.10;;
34982;SDS011;21187;50.976;13.720;2024-01-16T22:40:25;8.15;;;2.00;;
34982;SDS011;21187;50.976;13.720;2024-01-16T22:45:27;6.00;;;2.80;;
34982;SDS011;21187;50.976;13.720;2024-01-16T22:50:29;5.50;;;2.13;;
34982;SDS011;21187;50.976;13.720;2024-01-16T22:55:32;6.82;;;2.50;;
34982;SDS011;21187;50.976;13.720;2024-01-16T23:00:35;12.93;;;2.92;;
34982;SDS011;21187;50.976;13.720;2024-01-16T23:05:41;7.85;;;2.33;;
34982;SDS011;21187;50.976;13.720;2024-01-16T23:10:45;4.25;;;2.30;;
34982;SDS011;21187;50.976;13.720;2024-01-16T23:15:50;8.73;;;3.05;;
34982;SDS011;21187;50.976;13.720;2024-01-16T23:20:53;6.78;;;2.70;;
34982;SDS011;21187;50.976;13.720;2024-01-16T23:25:55;5.55;;;2.42;;
34982;SDS011;21187;50.976;13.720;2024-01-16T23:30:57;10.52;;;2.88;;
34982;SDS011;21187;50.976;13.720;2024-01-16T23:36:03;5.50;;;2.40;;
34982;SDS011;21187;50.976;13.720;2024-01-16T23:41:08;4.35;;;2.40;;
34982;SDS011;21187;50.976;13.720;2024-01-16T23:46:11;5.38;;;2.47;;
34982;SDS011;21187;50.976;13.720;2024-01-16T23:51:13;3.28;;;2.55;;
34982;SDS011;21187;50.976;13.720;2024-01-16T23:56:15;7.40;;;2.75;;
